Time;durP1;ratioP1;P1;durP2;ratioP2;P2;SDS_P1;SDS_P2;PMS_P1;PMS_P2;Temp;Humidity;BMP_temperature;BMP_pressure;BME280_temperature;BME280_humidity;BME280_pressure;Samples;Min_cycle;Max_cycle;Signal;HPM_P1;HPM_P2
2024/01/12 00:01:44;;;;;;;0.73;0.73;;;3.90;99.90;;;;;;5054753;28;20033;-74
2024/01/12 00:04:10;;;;;;;0.10;0.10;;;3.90;99.90;;;;;;5037262;28;20024;-74
2024/01/12 00:06:36;;;;;;;1.88;1.77;;;4.00;99.90;;;;;;5036477;28;20040;-74
2024/01/12 00:09:03;;;;;;;1.33;1.17;;;4.00;99.90;;;;;;5054907;28;20033;-74
2024/01/12 00:11:29;;;;;;;1.92;1.75;;;3.90;99.90;;;;;;5054657;28;20057;-74
2024/01/12 00:13:55;;;;;;;0.10;0.10;;;3.90;99.90;;;;;;5054918;28;20558;-74
2024/01/12 00:16:21;;;;;;;1.45;1.35;;;3.90;99.90;;;;;;5054596;28;20035;-74
2024/01/12 00:18:47;;;;;;;1.80;1.55;;;4.00;99.90;;;;;;5036762;28;20122;-74
2024/01/12 00:21:13;;;;;;;0.10;0.10;;;3.90;99.90;;;;;;5054314;28;20111;-74
2024/01/12 00:23:39;;;;;;;2.47;0.55;;;4.00;99.90;;;;;;5054313;28;20029;-74
2024/01/12 00:26:05;;;;;;;0.25;0.25;;;4.10;99.90;;;;;;5054371;28;20418;-74
2024/01/12 00:28:32;;;;;;;3.72;2.17;;;4.00;99.90;;;;;;5054499;28;20477;-75
2024/01/12 00:30:57;;;;;;;0.40;0.40;;;4.10;99.90;;;;;;5054197;28;20660;-75
2024/01/12 00:33:24;;;;;;;0.10;0.10;;;4.10;99.90;;;;;;5054508;28;20072;-74
2024/01/12 00:35:50;;;;;;;1.38;1.35;;;4.00;99.90;;;;;;5036258;28;20460;-74
2024/01/12 00:38:16;;;;;;;0.10;0.10;;;4.10;99.90;;;;;;5054303;28;20385;-74
2024/01/12 00:40:42;;;;;;;0.20;0.20;;;4.10;99.90;;;;;;5054186;28;20025;-75
2024/01/12 00:43:08;;;;;;;0.10;0.10;;;4.20;99.90;;;;;;5053967;28;20052;-75
2024/01/12 00:45:34;;;;;;;0.65;0.65;;;4.50;99.90;;;;;;5054586;28;20548;-75
2024/01/12 00:48:00;;;;;;;0.22;0.22;;;4.70;99.90;;;;;;5053738;28;20474;-75
2024/01/12 00:50:26;;;;;;;0.10;0.10;;;4.70;99.90;;;;;;5053638;28;20032;-75
2024/01/12 00:52:52;;;;;;;0.00;0.00;;;4.90;99.90;;;;;;5053758;28;20588;-74
2024/01/12 00:55:18;;;;;;;0.00;0.00;;;5.20;99.90;;;;;;5054190;28;20090;-74
2024/01/12 00:57:44;;;;;;;1.10;0.50;;;5.40;99.90;;;;;;5054026;28;20481;-74
2024/01/12 01:00:10;;;;;;;0.10;0.10;;;5.40;99.90;;;;;;5053644;28;20017;-74
2024/01/12 01:02:36;;;;;;;0.22;0.22;;;5.50;99.90;;;;;;5053811;28;20032;-74
2024/01/12 01:05:03;;;;;;;0.10;0.10;;;5.60;99.90;;;;;;5053511;28;20108;-74
2024/01/12 01:07:29;;;;;;;0.00;0.00;;;5.60;99.90;;;;;;5053736;28;20068;-74
2024/01/12 01:09:58;;;;;;;0.00;0.00;;;5.60;99.90;;;;;;5053696;28;20086;-75
2024/01/12 01:12:24;;;;;;;0.00;0.00;;;5.80;99.90;;;;;;5035775;28;20420;-75
2024/01/12 01:14:50;;;;;;;0.25;0.25;;;5.70;99.90;;;;;;5053345;28;20021;-74
2024/01/12 01:17:16;;;;;;;0.00;0.00;;;5.80;99.90;;;;;;5053643;28;20358;-74
2024/01/12 01:19:41;;;;;;;0.10;0.10;;;5.80;99.90;;;;;;5053443;28;20033;-74
2024/01/12 01:22:07;;;;;;;0.00;0.00;;;5.80;99.90;;;;;;5053609;28;20033;-75
2024/01/12 01:24:33;;;;;;;0.03;0.03;;;5.80;99.90;;;;;;5053469;28;20028;-74
2024/01/12 01:26:59;;;;;;;0.00;0.00;;;5.80;99.90;;;;;;5053436;28;20037;-74
2024/01/12 01:29:24;;;;;;;1.02;0.85;;;5.80;99.90;;;;;;5053143;28;20025;-74
2024/01/12 01:31:53;;;;;;;0.63;0.25;;;5.80;99.90;;;;;;5035541;28;20021;-74
2024/01/12 01:34:19;;;;;;;0.10;0.10;;;5.80;99.90;;;;;;5051996;28;20025;-74
2024/01/12 01:36:45;;;;;;;0.20;0.20;;;5.80;99.90;;;;;;5053318;28;20489;-74
2024/01/12 01:39:11;;;;;;;0.20;0.20;;;5.70;99.90;;;;;;5053006;28;20017;-74
2024/01/12 01:41:37;;;;;;;0.00;0.00;;;5.60;99.90;;;;;;5053218;28;20527;-74
2024/01/12 01:44:03;;;;;;;1.00;0.90;;;5.60;99.90;;;;;;5053096;28;20029;-74
2024/01/12 01:46:29;;;;;;;0.93;0.85;;;5.50;99.90;;;;;;5052968;28;20059;-74
2024/01/12 01:48:55;;;;;;;1.38;0.93;;;5.70;99.90;;;;;;5052593;28;20036;-74
2024/01/12 01:51:22;;;;;;;0.20;0.20;;;5.50;99.90;;;;;;5052666;28;20036;-74
2024/01/12 01:53:49;;;;;;;0.10;0.10;;;5.60;99.90;;;;;;5051737;28;20051;-74
2024/01/12 01:56:15;;;;;;;0.10;0.10;;;5.60;99.90;;;;;;5052854;28;20036;-74
2024/01/12 01:58:42;;;;;;;0.10;0.10;;;5.60;99.90;;;;;;5052889;28;20354;-74
2024/01/12 02:01:08;;;;;;;0.10;0.10;;;5.70;99.90;;;;;;5052644;28;20036;-74
2024/01/12 02:03:36;;;;;;;0.10;0.10;;;5.70;99.90;;;;;;5052408;28;20021;-75
2024/01/12 02:06:02;;;;;;;0.00;0.00;;;5.60;99.90;;;;;;5034884;28;20037;-74
2024/01/12 02:08:28;;;;;;;0.10;0.10;;;5.70;99.90;;;;;;5052403;28;20028;-74
2024/01/12 02:10:55;;;;;;;1.00;0.57;;;5.70;99.90;;;;;;5052797;28;20035;-74
2024/01/12 02:13:22;;;;;;;0.10;0.10;;;5.60;99.90;;;;;;5034570;28;20037;-74
2024/01/12 02:15:49;;;;;;;0.10;0.10;;;5.70;99.90;;;;;;5034469;28;20033;-74
2024/01/12 02:18:16;;;;;;;0.10;0.10;;;5.60;99.90;;;;;;5052228;28;20106;-74
2024/01/12 02:20:42;;;;;;;0.00;0.00;;;5.60;99.90;;;;;;5052377;28;20024;-75
2024/01/12 02:23:08;;;;;;;0.35;0.35;;;5.50;99.90;;;;;;5052717;28;20028;-74
2024/01/12 02:25:35;;;;;;;0.10;0.10;;;5.60;99.90;;;;;;5052497;28;20025;-74
2024/01/12 02:28:00;;;;;;;1.30;0.22;;;5.60;99.90;;;;;;5034941;28;20507;-74
2024/01/12 02:30:27;;;;;;;0.30;0.30;;;5.70;99.90;;;;;;5034441;28;20025;-73
2024/01/12 02:32:53;;;;;;;0.20;0.20;;;5.60;99.90;;;;;;5051984;28;20057;-74
2024/01/12 02:35:19;;;;;;;0.00;0.00;;;5.60;99.90;;;;;;5052559;28;20061;-74
2024/01/12 02:37:45;;;;;;;0.00;0.00;;;5.50;99.90;;;;;;5052405;28;20374;-74
2024/01/12 02:40:11;;;;;;;0.40;0.40;;;5.40;99.90;;;;;;5052497;28;20358;-74
2024/01/12 02:42:37;;;;;;;0.10;0.10;;;5.60;99.90;;;;;;5052430;28;20033;-74
2024/01/12 02:45:03;;;;;;;0.10;0.10;;;5.60;99.90;;;;;;5053168;28;20021;-74
2024/01/12 02:47:30;;;;;;;0.00;0.00;;;5.70;99.90;;;;;;5056114;28;20040;-74
2024/01/12 02:49:56;;;;;;;0.10;0.10;;;5.70;99.90;;;;;;5054882;28;20456;-74
2024/01/12 02:52:22;;;;;;;0.00;0.00;;;5.70;99.90;;;;;;5056531;28;20028;-73
2024/01/12 02:54:48;;;;;;;0.00;0.00;;;5.70;99.90;;;;;;5056020;28;20099;-74
2024/01/12 02:57:14;;;;;;;0.10;0.10;;;5.60;99.90;;;;;;5056285;28;20017;-74
2024/01/12 02:59:40;;;;;;;0.10;0.10;;;5.70;99.90;;;;;;5056112;28;20401;-74
2024/01/12 03:02:06;;;;;;;0.00;0.00;;;5.60;99.90;;;;;;5053830;28;20029;-74
2024/01/12 03:04:31;;;;;;;0.28;0.28;;;5.60;99.90;;;;;;5055949;28;20033;-74
2024/01/12 03:06:57;;;;;;;0.20;0.20;;;5.70;99.90;;;;;;5056030;28;20017;-74
2024/01/12 03:09:23;;;;;;;0.00;0.00;;;5.70;99.90;;;;;;5055923;28;20556;-74
2024/01/12 03:11:49;;;;;;;0.00;0.00;;;5.60;99.90;;;;;;5056225;28;20033;-74
2024/01/12 03:14:14;;;;;;;0.10;0.10;;;5.60;99.90;;;;;;5054612;28;20497;-74
2024/01/12 03:16:40;;;;;;;0.00;0.00;;;5.60;99.90;;;;;;5055579;28;20079;-74
2024/01/12 03:19:06;;;;;;;0.00;0.00;;;5.50;99.90;;;;;;5055743;28;20025;-74
2024/01/12 03:21:31;;;;;;;0.10;0.10;;;5.50;99.90;;;;;;5055594;28;20025;-73
2024/01/12 03:23:57;;;;;;;0.00;0.00;;;5.50;99.90;;;;;;5055944;28;20115;-73
2024/01/12 03:26:23;;;;;;;0.10;0.10;;;5.60;99.90;;;;;;5055642;28;20017;-74
2024/01/12 03:28:49;;;;;;;0.10;0.10;;;5.50;99.90;;;;;;5055375;28;20043;-74
2024/01/12 03:31:19;;;;;;;0.10;0.10;;;5.40;99.90;;;;;;5055668;28;20021;-73
2024/01/12 03:33:45;;;;;;;0.10;0.10;;;5.50;99.90;;;;;;5055663;28;20049;-74
2024/01/12 03:36:13;;;;;;;0.00;0.00;;;5.50;99.90;;;;;;5055339;28;20025;-74
2024/01/12 03:38:39;;;;;;;0.10;0.10;;;5.50;99.90;;;;;;5055321;28;20029;-74
2024/01/12 03:41:06;;;;;;;0.10;0.10;;;5.60;99.90;;;;;;5055373;28;20102;-74
2024/01/12 03:43:31;;;;;;;0.30;0.30;;;5.40;99.90;;;;;;5055054;28;20124;-74
2024/01/12 03:45:57;;;;;;;0.10;0.10;;;5.40;99.90;;;;;;5055056;28;20110;-74
2024/01/12 03:48:23;;;;;;;0.20;0.20;;;5.40;99.90;;;;;;5020810;28;20056;-74
2024/01/12 03:50:49;;;;;;;0.80;0.73;;;5.30;99.90;;;;;;5055047;28;20025;-74
2024/01/12 03:53:15;;;;;;;0.03;0.03;;;5.50;99.90;;;;;;5055285;28;20367;-73
2024/01/12 03:55:41;;;;;;;0.00;0.00;;;5.40;99.90;;;;;;5055009;28;20017;-74
2024/01/12 03:58:07;;;;;;;0.00;0.00;;;5.30;99.90;;;;;;5053984;28;20706;-74
2024/01/12 04:00:33;;;;;;;0.10;0.10;;;5.30;99.90;;;;;;5054655;28;20402;-74
2024/01/12 04:02:59;;;;;;;0.43;0.43;;;5.50;99.90;;;;;;5054858;28;20029;-74
2024/01/12 04:05:25;;;;;;;0.10;0.10;;;5.50;99.90;;;;;;5054680;28;20033;-73
2024/01/12 04:07:51;;;;;;;0.63;0.63;;;5.30;99.90;;;;;;5054887;28;20561;-73
2024/01/12 04:10:16;;;;;;;0.10;0.10;;;5.30;99.90;;;;;;5054569;28;20029;-74
2024/01/12 04:12:42;;;;;;;0.00;0.00;;;5.20;99.90;;;;;;5054074;28;20096;-74
2024/01/12 04:15:09;;;;;;;0.75;0.75;;;5.30;99.90;;;;;;5054662;28;20056;-73
2024/01/12 04:17:35;;;;;;;0.20;0.20;;;5.00;99.90;;;;;;5054379;28;20029;-73
2024/01/12 04:20:01;;;;;;;0.00;0.00;;;5.10;99.90;;;;;;5054690;28;20039;-74
2024/01/12 04:22:27;;;;;;;0.00;0.00;;;5.10;99.90;;;;;;5054507;28;20045;-73
2024/01/12 04:24:53;;;;;;;0.10;0.10;;;5.30;99.90;;;;;;5054422;28;20025;-74
2024/01/12 04:27:19;;;;;;;0.00;0.00;;;5.30;99.90;;;;;;5054079;28;20500;-73
2024/01/12 04:29:45;;;;;;;0.00;0.00;;;5.30;99.90;;;;;;5054325;28;20033;-73
2024/01/12 04:32:11;;;;;;;0.00;0.00;;;5.30;99.90;;;;;;5054459;28;20032;-74
2024/01/12 04:34:37;;;;;;;0.05;0.05;;;5.20;99.90;;;;;;5052347;28;20021;-74
2024/01/12 04:37:04;;;;;;;0.20;0.20;;;5.20;99.90;;;;;;5042524;28;20362;-74
2024/01/12 04:39:31;;;;;;;0.00;0.00;;;5.10;99.90;;;;;;5054350;28;20040;-73
2024/01/12 04:41:57;;;;;;;1.00;0.45;;;5.20;99.90;;;;;;5053975;28;20457;-74
2024/01/12 04:44:23;;;;;;;0.00;0.00;;;5.20;99.90;;;;;;5054180;28;20017;-74
2024/01/12 04:46:49;;;;;;;0.30;0.30;;;5.20;99.90;;;;;;5053935;28;20040;-74
2024/01/12 04:49:15;;;;;;;0.00;0.00;;;5.30;99.90;;;;;;5036272;28;20041;-74
2024/01/12 04:51:40;;;;;;;0.10;0.10;;;5.10;99.90;;;;;;5053902;28;20438;-74
2024/01/12 04:54:06;;;;;;;0.30;0.30;;;5.20;99.90;;;;;;5054231;28;20409;-74
2024/01/12 04:56:32;;;;;;;0.00;0.00;;;5.20;99.90;;;;;;5053547;28;20051;-74
2024/01/12 04:58:58;;;;;;;0.00;0.00;;;5.20;99.90;;;;;;5054108;28;20081;-73
2024/01/12 05:01:23;;;;;;;0.10;0.10;;;5.10;99.90;;;;;;5053702;28;20071;-74
2024/01/12 05:03:49;;;;;;;0.00;0.00;;;5.10;99.90;;;;;;5053552;28;20028;-73
2024/01/12 05:06:15;;;;;;;0.10;0.10;;;5.20;99.90;;;;;;5052572;28;20504;-74
2024/01/12 05:08:41;;;;;;;0.10;0.10;;;5.20;99.90;;;;;;5037476;28;20044;-74
2024/01/12 05:11:08;;;;;;;0.10;0.10;;;5.20;99.90;;;;;;5038953;28;20017;-74
2024/01/12 05:13:34;;;;;;;0.55;0.55;;;5.00;99.90;;;;;;5051280;28;20029;-73
2024/01/12 05:16:00;;;;;;;0.10;0.10;;;5.10;99.90;;;;;;5052857;28;20485;-74
2024/01/12 05:18:25;;;;;;;0.08;0.08;;;5.10;99.90;;;;;;5035559;28;20041;-74
2024/01/12 05:20:51;;;;;;;0.00;0.00;;;5.10;99.90;;;;;;5053336;28;20017;-73
2024/01/12 05:23:19;;;;;;;0.05;0.05;;;5.10;99.90;;;;;;5035664;28;20037;-73
2024/01/12 05:25:45;;;;;;;0.10;0.10;;;5.00;99.90;;;;;;5053075;28;20409;-74
2024/01/12 05:28:11;;;;;;;0.00;0.00;;;5.00;99.90;;;;;;5052901;28;20100;-73
2024/01/12 05:30:36;;;;;;;0.30;0.30;;;4.90;99.90;;;;;;5053328;28;20036;-73
2024/01/12 05:33:02;;;;;;;0.05;0.05;;;4.90;99.90;;;;;;5053097;28;20035;-73
2024/01/12 05:35:30;;;;;;;0.10;0.10;;;5.00;99.90;;;;;;5053685;28;20076;-73
2024/01/12 05:37:56;;;;;;;0.10;0.10;;;4.90;99.90;;;;;;5053121;28;20025;-73
2024/01/12 05:40:21;;;;;;;0.00;0.00;;;5.00;99.90;;;;;;5052728;28;20029;-73
2024/01/12 05:42:47;;;;;;;0.45;0.45;;;5.00;99.90;;;;;;5052902;28;20038;-74
2024/01/12 05:45:13;;;;;;;0.00;0.00;;;5.00;99.90;;;;;;5053231;28;20029;-74
2024/01/12 05:47:38;;;;;;;0.00;0.00;;;5.00;99.90;;;;;;5052558;28;20136;-74
2024/01/12 05:50:06;;;;;;;0.05;0.05;;;5.00;99.90;;;;;;5053082;28;20028;-73
2024/01/12 05:52:33;;;;;;;0.00;0.00;;;5.10;99.90;;;;;;5051615;28;20378;-74
2024/01/12 05:54:59;;;;;;;0.00;0.00;;;5.10;99.90;;;;;;5034590;28;20142;-74
2024/01/12 05:57:25;;;;;;;0.20;0.20;;;5.00;99.90;;;;;;5052951;28;20021;-74
2024/01/12 05:59:52;;;;;;;0.05;0.05;;;5.00;99.90;;;;;;5052619;28;20021;-74
2024/01/12 06:02:17;;;;;;;2.85;0.55;;;5.00;99.90;;;;;;5052774;28;20039;-73
2024/01/12 06:04:43;;;;;;;0.00;0.00;;;5.00;99.90;;;;;;5052257;28;20021;-74
2024/01/12 06:07:09;;;;;;;0.28;0.28;;;5.00;99.90;;;;;;5051736;28;20049;-74
2024/01/12 06:09:35;;;;;;;0.00;0.00;;;5.10;99.90;;;;;;5052030;28;20028;-73
2024/01/12 06:12:00;;;;;;;0.00;0.00;;;5.20;99.90;;;;;;5052894;28;20384;-73
2024/01/12 06:14:26;;;;;;;0.00;0.00;;;5.10;99.90;;;;;;5051535;28;20033;-74
2024/01/12 06:16:52;;;;;;;0.00;0.00;;;5.20;99.90;;;;;;5052853;28;20043;-74
2024/01/12 06:19:18;;;;;;;0.00;0.00;;;5.10;99.90;;;;;;5052104;28;20029;-74
2024/01/12 06:21:43;;;;;;;0.00;0.00;;;5.10;99.90;;;;;;5018404;28;20474;-74
2024/01/12 06:24:11;;;;;;;0.00;0.00;;;5.00;99.90;;;;;;5052421;28;20056;-74
2024/01/12 06:26:37;;;;;;;0.00;0.00;;;5.00;99.90;;;;;;5018697;28;20036;-74
2024/01/12 06:29:03;;;;;;;0.00;0.00;;;5.20;99.90;;;;;;5052522;28;20401;-74
2024/01/12 06:31:31;;;;;;;0.03;0.03;;;5.00;99.90;;;;;;5051189;28;20069;-74
2024/01/12 06:33:56;;;;;;;3.47;1.45;;;4.80;99.90;;;;;;5034907;28;20033;-74
2024/01/12 06:36:22;;;;;;;1.20;0.68;;;4.90;99.90;;;;;;5034585;28;20017;-74
2024/01/12 06:38:48;;;;;;;0.10;0.10;;;4.90;99.90;;;;;;5053500;28;20025;-74
2024/01/12 06:41:14;;;;;;;1.23;1.17;;;4.90;99.90;;;;;;5055242;28;20025;-74
2024/01/12 06:43:39;;;;;;;2.20;2.00;;;5.10;99.90;;;;;;5055532;28;20366;-74
2024/01/12 06:46:06;;;;;;;2.17;2.05;;;5.10;99.90;;;;;;5034594;28;20362;-74
2024/01/12 06:48:32;;;;;;;0.35;0.35;;;5.10;99.90;;;;;;5052741;28;20462;-73
2024/01/12 06:50:57;;;;;;;1.77;0.85;;;5.20;99.90;;;;;;5052153;28;20031;-74
2024/01/12 06:53:23;;;;;;;0.00;0.00;;;5.20;99.90;;;;;;5050877;28;20033;-74
2024/01/12 06:55:49;;;;;;;0.00;0.00;;;5.10;99.90;;;;;;5017751;28;20060;-73
2024/01/12 06:58:16;;;;;;;0.00;0.00;;;5.10;99.90;;;;;;5034477;28;20064;-73
2024/01/12 07:00:42;;;;;;;0.10;0.10;;;5.10;99.90;;;;;;5052142;28;20404;-74
2024/01/12 07:03:08;;;;;;;0.00;0.00;;;5.30;99.90;;;;;;5052173;28;20029;-74
2024/01/12 07:05:33;;;;;;;0.20;0.20;;;5.50;99.90;;;;;;5051986;28;20025;-74
2024/01/12 07:07:59;;;;;;;0.10;0.10;;;5.50;99.90;;;;;;5051700;28;20033;-74
2024/01/12 07:10:26;;;;;;;0.00;0.00;;;5.50;99.90;;;;;;5052029;28;20115;-73
2024/01/12 07:12:51;;;;;;;0.10;0.10;;;5.60;99.90;;;;;;5052014;28;20389;-74
2024/01/12 07:15:18;;;;;;;0.00;0.00;;;5.40;99.90;;;;;;5050807;28;20032;-74
2024/01/12 07:17:45;;;;;;;0.03;0.03;;;5.30;99.90;;;;;;5050767;28;20508;-74
2024/01/12 07:20:11;;;;;;;0.00;0.00;;;5.20;99.90;;;;;;5051963;28;20033;-74
2024/01/12 07:22:37;;;;;;;0.00;0.00;;;5.20;99.90;;;;;;5051633;28;20096;-74
2024/01/12 07:25:03;;;;;;;0.10;0.10;;;5.20;99.90;;;;;;5051959;28;20413;-73
2024/01/12 07:27:30;;;;;;;0.40;0.20;;;5.30;99.90;;;;;;5052045;28;20059;-73
2024/01/12 07:29:56;;;;;;;0.10;0.10;;;5.10;99.90;;;;;;5033930;28;20438;-74
2024/01/12 07:32:21;;;;;;;0.00;0.00;;;5.30;99.90;;;;;;5053624;28;20053;-74
2024/01/12 07:34:48;;;;;;;0.00;0.00;;;5.30;99.90;;;;;;5055141;28;20063;-73
2024/01/12 07:37:14;;;;;;;0.35;0.35;;;5.30;99.90;;;;;;5055254;28;20029;-74
2024/01/12 07:39:39;;;;;;;0.10;0.10;;;5.20;99.90;;;;;;5055352;28;20086;-74
2024/01/12 07:42:05;;;;;;;0.10;0.10;;;5.20;99.90;;;;;;5055258;28;20035;-74
2024/01/12 07:44:31;;;;;;;0.00;0.00;;;5.20;99.90;;;;;;5055332;28;20196;-74
2024/01/12 07:46:57;;;;;;;0.10;0.10;;;5.30;99.90;;;;;;5053713;28;20025;-74
2024/01/12 07:49:23;;;;;;;0.00;0.00;;;5.20;99.90;;;;;;5055300;28;20398;-73
2024/01/12 07:51:49;;;;;;;0.10;0.10;;;5.10;99.90;;;;;;5054805;28;20077;-76
2024/01/12 07:54:15;;;;;;;0.00;0.00;;;5.10;99.90;;;;;;5055341;28;20035;-73
2024/01/12 07:56:41;;;;;;;0.10;0.10;;;5.10;99.90;;;;;;5055095;28;20449;-73
2024/01/12 07:59:06;;;;;;;0.05;0.05;;;5.20;99.90;;;;;;5055182;28;20061;-74
2024/01/12 08:01:32;;;;;;;0.00;0.00;;;5.30;99.90;;;;;;5037040;28;20048;-74
2024/01/12 08:03:58;;;;;;;0.10;0.10;;;5.20;99.90;;;;;;5054556;28;20029;-74
2024/01/12 08:06:24;;;;;;;0.10;0.10;;;5.30;99.90;;;;;;5035978;28;20040;-73
2024/01/12 08:08:49;;;;;;;0.00;0.00;;;5.30;99.90;;;;;;5053866;28;20048;-74
2024/01/12 08:11:15;;;;;;;0.10;0.10;;;5.20;99.90;;;;;;5054029;28;20113;-74
2024/01/12 08:13:41;;;;;;;0.00;0.00;;;5.20;99.90;;;;;;5053279;28;20033;-73
2024/01/12 08:16:07;;;;;;;0.03;0.03;;;5.30;99.90;;;;;;5054265;28;20025;-74
2024/01/12 08:18:34;;;;;;;0.10;0.10;;;5.20;99.90;;;;;;5054371;28;20044;-74
2024/01/12 08:20:59;;;;;;;0.00;0.00;;;5.20;99.90;;;;;;5054067;28;20073;-73
2024/01/12 08:23:26;;;;;;;0.10;0.10;;;4.80;99.90;;;;;;5054635;28;20021;-73
2024/01/12 08:25:52;;;;;;;0.10;0.10;;;4.80;99.90;;;;;;5054428;28;20025;-74
2024/01/12 08:28:18;;;;;;;0.00;0.00;;;5.00;99.90;;;;;;5054475;28;20029;-74
2024/01/12 08:30:45;;;;;;;0.00;0.00;;;5.20;99.90;;;;;;5054503;28;20033;-74
2024/01/12 08:33:11;;;;;;;0.00;0.00;;;5.20;99.90;;;;;;5036383;28;20027;-74
2024/01/12 08:35:37;;;;;;;0.08;0.08;;;5.30;99.90;;;;;;5054281;28;20096;-74
2024/01/12 08:38:03;;;;;;;0.00;0.00;;;5.50;99.90;;;;;;5054102;28;20017;-73
2024/01/12 08:40:28;;;;;;;0.32;0.22;;;5.50;99.90;;;;;;5054559;28;20040;-73
2024/01/12 08:42:57;;;;;;;0.00;0.00;;;5.50;99.90;;;;;;5052493;28;20128;-73
2024/01/12 08:45:23;;;;;;;0.38;0.38;;;5.40;99.90;;;;;;5054458;28;20028;-73
2024/01/12 08:47:48;;;;;;;0.35;0.30;;;5.30;99.90;;;;;;5053790;28;20033;-74
2024/01/12 08:50:14;;;;;;;0.25;0.25;;;5.40;99.90;;;;;;5054038;28;20389;-74
2024/01/12 08:52:40;;;;;;;3.53;1.75;;;5.00;99.90;;;;;;5053909;28;20017;-73
2024/01/12 08:55:09;;;;;;;0.10;0.10;;;5.10;99.90;;;;;;5054044;28;20037;-73
2024/01/12 08:57:35;;;;;;;0.00;0.00;;;5.20;99.90;;;;;;5053910;28;20029;-74
2024/01/12 09:00:03;;;;;;;0.00;0.00;;;5.40;99.90;;;;;;5053739;28;20363;-74
2024/01/12 09:02:29;;;;;;;0.03;0.03;;;5.40;99.90;;;;;;5035712;28;20047;-73
2024/01/12 09:04:55;;;;;;;4.22;2.38;;;5.40;99.90;;;;;;5053985;28;20033;-74
2024/01/12 09:07:21;;;;;;;0.00;0.00;;;5.50;99.90;;;;;;5035616;28;20033;-73
2024/01/12 09:09:46;;;;;;;0.25;0.25;;;5.60;99.90;;;;;;5036080;28;20040;-74
2024/01/12 09:12:12;;;;;;;5.57;0.90;;;5.60;99.90;;;;;;5019160;28;20028;-74
2024/01/12 09:14:38;;;;;;;0.00;0.00;;;5.40;99.90;;;;;;5053547;28;20020;-73
2024/01/12 09:17:03;;;;;;;4.40;1.00;;;5.40;99.90;;;;;;5053146;28;20020;-74
2024/01/12 09:19:29;;;;;;;0.00;0.00;;;5.50;99.90;;;;;;5053558;28;20025;-74
2024/01/12 09:21:55;;;;;;;0.52;0.52;;;5.50;99.90;;;;;;5035712;28;20037;-73
2024/01/12 09:24:21;;;;;;;0.00;0.00;;;5.60;99.90;;;;;;5053238;28;20059;-74
2024/01/12 09:26:47;;;;;;;0.00;0.00;;;5.70;99.90;;;;;;5052273;28;20436;-73
2024/01/12 09:29:13;;;;;;;0.10;0.10;;;5.70;99.90;;;;;;5053262;28;20032;-74
2024/01/12 09:31:38;;;;;;;0.45;0.45;;;5.80;99.90;;;;;;5052869;28;20539;-73
2024/01/12 09:34:04;;;;;;;1.50;1.00;;;5.70;99.90;;;;;;5053549;28;20029;-73
2024/01/12 09:36:30;;;;;;;2.13;1.02;;;5.70;99.90;;;;;;5053194;28;20025;-74
2024/01/12 09:38:56;;;;;;;0.20;0.20;;;5.60;99.90;;;;;;5053082;28;20036;-73
2024/01/12 09:41:34;;;;;;;0.63;0.63;;;5.50;99.90;;;;;;5053013;28;20021;-74
2024/01/12 09:44:06;;;;;;;0.00;0.00;;;5.40;99.90;;;;;;5052032;28;20037;-73
2024/01/12 09:46:35;;;;;;;;;;;5.50;99.90;;;;;;5035341;28;20025;-73
2024/01/12 09:49:01;;;;;;;0.10;0.10;;;5.70;99.90;;;;;;5053039;28;19920;-74
2024/01/12 09:51:27;;;;;;;0.10;0.10;;;5.70;99.90;;;;;;5052801;28;20028;-73
2024/01/12 09:53:53;;;;;;;0.00;0.00;;;5.70;99.90;;;;;;5052897;28;20362;-73
2024/01/12 09:56:23;;;;;;;0.15;0.15;;;5.80;99.90;;;;;;5052644;28;20103;-74
2024/01/12 09:58:50;;;;;;;0.00;0.00;;;5.80;99.90;;;;;;5052755;28;20553;-73
2024/01/12 10:01:17;;;;;;;0.00;0.00;;;5.40;99.90;;;;;;5052757;28;20473;-74
2024/01/12 10:03:45;;;;;;;0.00;0.00;;;5.60;99.90;;;;;;5052593;28;20009;-74
2024/01/12 10:06:11;;;;;;;0.00;0.00;;;5.70;99.90;;;;;;5053048;28;20029;-73
2024/01/12 10:08:37;;;;;;;0.10;0.10;;;5.60;99.90;;;;;;5052555;28;20084;-74
2024/01/12 10:11:03;;;;;;;0.00;0.00;;;5.60;99.90;;;;;;5034761;28;20020;-74
2024/01/12 10:13:29;;;;;;;0.03;0.03;;;5.60;99.90;;;;;;5052574;28;20114;-73
2024/01/12 10:15:55;;;;;;;0.10;0.10;;;5.60;99.90;;;;;;5052219;28;20115;-73
2024/01/12 10:18:21;;;;;;;0.25;0.25;;;5.30;99.90;;;;;;5052713;28;20020;-73
2024/01/12 10:20:50;;;;;;;0.00;0.00;;;5.00;99.90;;;;;;5052558;28;20056;-73
2024/01/12 10:23:20;;;;;;;0.00;0.00;;;5.10;99.90;;;;;;5052658;28;20120;-73
2024/01/12 10:25:59;;;;;;;1.30;0.60;;;5.10;99.90;;;;;;5034759;28;20064;-73
2024/01/12 10:28:32;;;;;;;0.10;0.10;;;5.10;99.90;;;;;;5052481;28;20041;-73
2024/01/12 10:31:04;;;;;;;1.10;1.10;;;5.20;99.90;;;;;;5052046;28;20549;-74
2024/01/12 10:33:30;;;;;;;;;;;5.30;99.90;;;;;;5035309;28;20021;-73
2024/01/12 10:36:23;;;;;;;0.00;0.00;;;5.40;99.90;;;;;;5052594;28;20387;-73
2024/01/12 10:38:50;;;;;;;0.10;0.10;;;5.30;99.90;;;;;;5052293;28;20044;-73
2024/01/12 10:41:21;;;;;;;0.68;0.68;;;5.50;99.90;;;;;;5052426;28;20090;-73
2024/01/12 10:43:52;;;;;;;1.15;1.02;;;5.50;99.90;;;;;;5052676;28;20025;-73
2024/01/12 10:46:47;;;;;;;0.10;0.10;;;5.30;99.90;;;;;;5052718;28;20025;-73
2024/01/12 10:49:17;;;;;;;0.00;0.00;;;5.30;99.90;;;;;;5052190;28;20037;-73
2024/01/12 10:52:12;;;;;;;0.40;0.40;;;5.50;99.90;;;;;;5051948;28;20037;-73
2024/01/12 10:54:46;;;;;;;0.45;0.45;;;5.70;99.90;;;;;;5051122;28;20029;-73
2024/01/12 10:57:13;;;;;;;0.00;0.00;;;5.50;99.90;;;;;;5034273;28;20025;-73
2024/01/12 10:59:41;;;;;;;0.00;0.00;;;5.60;99.90;;;;;;5044001;28;20048;-73
2024/01/12 11:02:10;;;;;;;0.10;0.10;;;5.60;99.90;;;;;;5052122;28;20048;-73
2024/01/12 11:04:36;;;;;;;1.42;1.33;;;5.70;99.90;;;;;;5052545;28;20052;-73
2024/01/12 11:07:03;;;;;;;1.55;1.13;;;5.50;99.90;;;;;;5054818;28;20021;-73
2024/01/12 11:09:28;;;;;;;0.10;0.10;;;5.40;99.90;;;;;;5054563;28;20045;-73
2024/01/12 11:12:06;;;;;;;0.00;0.00;;;5.50;99.90;;;;;;5038282;28;20024;-73
2024/01/12 11:14:32;;;;;;;0.43;0.43;;;5.80;99.90;;;;;;5037760;28;20430;-73
2024/01/12 11:17:01;;;;;;;5.00;1.45;;;5.60;99.90;;;;;;5054771;28;20037;-73
2024/01/12 11:19:29;;;;;;;9.43;2.60;;;5.50;99.90;;;;;;5055653;28;20021;-73
2024/01/12 11:22:08;;;;;;;1.35;1.23;;;5.30;99.90;;;;;;5055776;28;20024;-73
2024/01/12 11:24:43;;;;;;;0.22;0.22;;;5.00;99.90;;;;;;5038190;28;20036;-73
2024/01/12 11:27:12;;;;;;;0.10;0.10;;;5.10;99.90;;;;;;5055860;28;20033;-73
2024/01/12 11:29:39;;;;;;;0.20;0.20;;;5.10;99.90;;;;;;5055105;28;20029;-73
2024/01/12 11:32:05;;;;;;;0.15;0.15;;;5.10;99.90;;;;;;5055475;28;20021;-73
2024/01/12 11:34:34;;;;;;;0.00;0.00;;;5.00;99.90;;;;;;5055260;28;20028;-73
2024/01/12 11:37:01;;;;;;;0.00;0.00;;;5.00;99.90;;;;;;5055274;28;20025;-73
2024/01/12 11:39:34;;;;;;;0.10;0.10;;;5.10;99.90;;;;;;5055804;28;20053;-73
2024/01/12 11:42:02;;;;;;;0.17;0.17;;;5.30;99.90;;;;;;5041951;28;20083;-73
2024/01/12 11:44:28;;;;;;;0.00;0.00;;;5.30;99.90;;;;;;5055577;28;20021;-74
2024/01/12 11:46:55;;;;;;;0.00;0.00;;;5.30;99.90;;;;;;5055082;28;20093;-74
2024/01/12 11:49:22;;;;;;;0.10;0.10;;;5.70;99.90;;;;;;5021223;28;20047;-73
2024/01/12 11:51:49;;;;;;;0.10;0.10;;;5.50;99.90;;;;;;5054933;28;20021;-73
2024/01/12 11:54:15;;;;;;;1.30;1.20;;;5.20;99.90;;;;;;5055405;28;20021;-74
2024/01/12 11:56:42;;;;;;;0.32;0.32;;;5.40;99.90;;;;;;5055078;28;20025;-74
2024/01/12 11:59:08;;;;;;;1.42;1.13;;;5.40;99.90;;;;;;5055023;28;20025;-73
2024/01/12 12:01:33;;;;;;;0.70;0.50;;;5.20;99.90;;;;;;5054902;28;20104;-73
2024/01/12 12:03:59;;;;;;;3.78;1.45;;;5.00;99.90;;;;;;5054878;28;20478;-73
2024/01/12 12:06:25;;;;;;;0.55;0.30;;;5.00;99.90;;;;;;5054997;28;20033;-73
2024/01/12 12:08:55;;;;;;;0.63;0.47;;;5.00;99.90;;;;;;5054723;28;20493;-73
2024/01/12 12:11:21;;;;;;;0.55;0.55;;;5.10;99.90;;;;;;5041073;28;20017;-74
2024/01/12 12:13:50;;;;;;;0.73;0.73;;;5.30;99.90;;;;;;5020479;28;20029;-73
2024/01/12 12:16:17;;;;;;;1.75;1.55;;;5.30;99.90;;;;;;5020112;28;20029;-73
2024/01/12 12:18:42;;;;;;;0.00;0.00;;;5.10;99.90;;;;;;5054151;28;20036;-74
2024/01/12 12:21:09;;;;;;;0.00;0.00;;;5.30;99.90;;;;;;5054413;28;20028;-73
2024/01/12 12:23:37;;;;;;;0.82;0.82;;;5.30;99.90;;;;;;5054726;28;20033;-73
2024/01/12 12:26:04;;;;;;;0.00;0.00;;;5.10;99.90;;;;;;5054372;28;20462;-73
2024/01/12 12:28:32;;;;;;;0.85;0.73;;;5.10;99.90;;;;;;5054664;28;20065;-73
2024/01/12 12:30:58;;;;;;;0.00;0.00;;;5.30;99.90;;;;;;5054649;28;20025;-73
2024/01/12 12:33:27;;;;;;;0.03;0.03;;;5.80;99.90;;;;;;5053309;28;20094;-73
2024/01/12 12:36:06;;;;;;;0.15;0.15;;;5.70;99.90;;;;;;5054435;28;20112;-73
2024/01/12 12:38:36;;;;;;;0.15;0.13;;;5.60;99.90;;;;;;5023172;28;20024;-74
2024/01/12 12:41:02;;;;;;;0.10;0.10;;;5.80;99.90;;;;;;5023419;28;20541;-74
2024/01/12 12:43:29;;;;;;;1.48;1.38;;;5.70;99.90;;;;;;5053335;28;20021;-73
2024/01/12 12:45:55;;;;;;;0.30;0.30;;;5.50;99.90;;;;;;5054086;28;20509;-73
2024/01/12 12:48:29;;;;;;;3.53;1.80;;;5.20;99.90;;;;;;5053905;28;20196;-73
2024/01/12 12:50:55;;;;;;;0.10;0.10;;;5.20;99.90;;;;;;5054171;28;20029;-74
2024/01/12 12:53:21;;;;;;;0.10;0.10;;;5.40;99.90;;;;;;5053973;28;20385;-73
2024/01/12 12:55:50;;;;;;;0.00;0.00;;;5.40;99.90;;;;;;5053781;28;20071;-74